Time;durP1;ratioP1;P1;durP2;ratioP2;P2;SDS_P1;SDS_P2;PMS_P1;PMS_P2;Temp;Humidity;BMP_temperature;BMP_pressure;BME280_temperature;BME280_humidity;BME280_pressure;Samples;Min_cycle;Max_cycle;Signal;HPM_P1;HPM_P2
2022/09/23 00:01:45;;;;;;;0.40;0.30;;;;;;;16.53;82.55;101524.06;21158481;27;20709;-74
2022/09/23 00:11:47;;;;;;;0.40;0.40;;;;;;;16.22;82.61;101467.16;21218241;27;20071;-74
2022/09/23 00:21:48;;;;;;;0.40;0.40;;;;;;;16.23;82.44;101453.63;21218847;27;20043;-73
2022/09/23 00:31:50;;;;;;;0.30;0.30;;;;;;;16.50;82.52;101497.41;21216620;27;20081;-73
2022/09/23 00:41:51;;;;;;;0.30;0.30;;;;;;;16.50;82.54;101503.63;21198810;27;20047;-74
2022/09/23 00:51:57;;;;;;;0.30;0.30;;;;;;;16.51;82.57;101504.50;21216809;27;20039;-73
2022/09/23 01:01:59;;;;;;;0.47;0.40;;;;;;;16.50;82.62;101481.28;21132733;27;20051;-73
2022/09/23 01:12:31;;;;;;;0.50;0.50;;;;;;;16.50;82.49;101483.97;21213574;27;20062;-73
2022/09/23 01:22:45;;;;;;;0.30;0.30;;;;;;;16.49;82.64;101477.72;21212907;27;20043;-74
2022/09/23 01:33:02;;;;;;;0.40;0.40;;;;;;;16.49;82.54;101464.28;21213790;27;20043;-74
2022/09/23 01:43:34;;;;;;;0.45;0.45;;;;;;;16.41;82.31;101455.09;21212086;27;20437;-73
2022/09/23 01:53:48;;;;;;;0.57;0.43;;;;;;;15.81;82.48;101346.50;21213241;27;20042;-73
2022/09/23 02:04:12;;;;;;;0.30;0.30;;;;;;;16.48;82.58;101448.28;21160690;27;20507;-74
2022/09/23 02:14:27;;;;;;;0.38;0.30;;;;;;;16.30;82.39;101411.03;21213936;27;20049;-73
2022/09/23 02:24:31;;;;;;;0.40;0.40;;;;;;;16.47;82.41;101417.00;21226963;27;20051;-74
2022/09/23 02:35:16;;;;;;;0.40;0.40;;;;;;;16.30;82.57;101381.47;21226130;27;20055;-74
2022/09/23 02:45:18;;;;;;;0.33;0.33;;;;;;;16.29;82.29;101371.69;21049421;27;20055;-73
2022/09/23 02:55:22;;;;;;;0.50;0.45;;;;;;;16.46;82.50;101397.31;21193815;27;20565;-73
2022/09/23 03:05:29;;;;;;;0.40;0.40;;;;;;;16.45;82.37;101392.91;21171199;27;20051;-73
2022/09/23 03:15:39;;;;;;;0.30;0.30;;;;;;;15.79;82.33;101273.25;21223246;27;20104;-73
2022/09/23 03:25:43;;;;;;;0.30;0.30;;;;;;;16.22;82.37;101327.47;21223446;27;20502;-73
2022/09/23 03:46:21;;;;;;;0.37;0.37;;;;;;;16.44;82.28;101355.44;21220940;27;20384;-73
2022/09/23 03:56:22;;;;;;;0.40;0.40;;;;;;;16.44;82.34;101347.38;21126904;27;20066;-73
2022/09/23 04:06:24;;;;;;;0.30;0.30;;;;;;;16.24;82.36;101299.53;21218504;27;20050;-73
2022/09/23 04:16:26;;;;;;;0.30;0.30;;;;;;;16.30;82.07;101311.63;21219058;27;20047;-73
2022/09/23 04:26:27;;;;;;;0.40;0.40;;;;;;;16.43;82.20;101326.84;21200300;27;20058;-73
2022/09/23 04:36:29;;;;;;;0.30;0.30;;;;;;;16.41;82.27;101316.19;21217567;27;20051;-73
2022/09/23 04:46:31;;;;;;;0.38;0.38;;;;;;;16.41;82.29;101324.25;21215176;27;20073;-74
2022/09/23 04:56:32;;;;;;;0.40;0.40;;;;;;;16.41;82.25;101331.47;21152565;27;20499;-74
2022/09/23 05:06:34;;;;;;;0.68;0.50;;;;;;;16.42;82.22;101338.56;21213735;27;20051;-75
2022/09/23 05:16:36;;;;;;;0.30;0.30;;;;;;;16.40;82.18;101335.97;21213904;27;20054;-74
2022/09/23 05:26:38;;;;;;;0.45;0.40;;;;;;;16.40;82.35;101324.38;21213604;27;20051;-74
2022/09/23 05:36:40;;;;;;;0.30;0.30;;;;;;;16.36;82.33;101319.25;21212722;27;20063;-75
2022/09/23 05:46:41;;;;;;;0.35;0.35;;;;;;;16.39;82.31;101323.50;21213743;27;20061;-73
2022/09/23 05:56:43;;;;;;;0.40;0.40;;;;;;;16.35;82.07;101301.41;21144991;27;20133;-73
2022/09/23 06:06:44;;;;;;;0.40;0.40;;;;;;;16.39;82.19;101312.75;21211711;27;20111;-73
2022/09/23 06:16:46;;;;;;;0.40;0.40;;;;;;;16.38;82.17;101325.38;21229784;27;20065;-73
2022/09/23 06:26:47;;;;;;;0.40;0.40;;;;;;;16.39;82.01;101315.44;21225238;27;20051;-74
2022/09/23 06:36:50;;;;;;;0.47;0.35;;;;;;;16.38;82.15;101322.69;21227787;27;20126;-74
2022/09/23 06:46:52;;;;;;;0.60;0.50;;;;;;;16.30;82.06;101314.31;21226975;27;20457;-73
2022/09/23 06:56:54;;;;;;;0.60;0.60;;;;;;;16.40;82.14;101327.06;21173642;27;20108;-74
2022/09/23 07:06:56;;;;;;;0.47;0.47;;;;;;;16.40;82.10;101335.13;21224185;27;20085;-74
2022/09/23 07:16:58;;;;;;;0.40;0.40;;;;;;;16.39;82.10;101323.50;21224472;27;20434;-73
2022/09/23 07:27:01;;;;;;;0.38;0.38;;;;;;;16.40;82.06;101332.44;21205566;27;20054;-74
2022/09/23 07:37:03;;;;;;;0.30;0.30;;;;;;;16.32;81.94;101320.41;21223112;27;20099;-73
2022/09/23 07:47:05;;;;;;;0.40;0.40;;;;;;;16.38;81.98;101327.19;21198845;27;20133;-73
2022/09/23 07:57:06;;;;;;;0.50;0.40;;;;;;;16.39;82.10;101334.25;21171431;27;20046;-74
2022/09/23 08:07:08;;;;;;;0.40;0.40;;;;;;;16.40;81.98;101335.13;21220446;27;20047;-74
2022/09/23 08:17:13;;;;;;;0.43;0.40;;;;;;;16.41;82.01;101326.94;21200637;27;20053;-73
2022/09/23 08:27:14;;;;;;;0.30;0.30;;;;;;;16.42;81.92;101325.13;21219086;27;20411;-74
2022/09/23 08:37:16;;;;;;;0.50;0.50;;;;;;;16.40;81.83;101314.47;21218368;27;20039;-74
2022/09/23 08:47:23;;;;;;;0.50;0.40;;;;;;;16.40;81.96;101314.47;21163813;27;20051;-74
2022/09/23 08:57:57;;;;;;;0.45;0.45;;;;;;;16.41;81.96;101320.72;21179195;27;20097;-74
2022/09/23 09:08:24;;;;;;;0.50;0.40;;;;;;;16.41;81.95;101315.34;21191826;27;20039;-73
2022/09/23 09:18:26;;;;;;;0.40;0.32;;;;;;;16.42;81.90;101300.94;21213236;27;20404;-73
2022/09/23 09:28:42;;;;;;;0.77;0.60;;;;;;;16.43;81.93;101300.81;21214503;27;20492;-73
2022/09/23 09:38:43;;;;;;;0.43;0.43;;;;;;;16.43;82.05;101302.66;21214262;27;20039;-73
2022/09/23 09:48:52;;;;;;;0.32;0.32;;;;;;;16.43;81.88;101291.91;21148579;27;20047;-73
2022/09/23 09:58:57;;;;;;;0.30;0.30;;;;;;;16.43;81.83;101275.78;21211578;27;20122;-74
2022/09/23 10:09:11;;;;;;;0.30;0.30;;;;;;;16.44;82.07;101264.06;21211351;27;20043;-73
2022/09/23 10:19:28;;;;;;;0.40;0.40;;;;;;;16.44;81.91;101269.44;21211010;27;20051;-73
2022/09/23 10:29:47;;;;;;;0.40;0.40;;;;;;;16.44;81.54;101269.44;21212092;27;20058;-73
2022/09/23 10:50:16;;;;;;;0.30;0.30;;;;;;;16.44;81.99;101267.59;21142523;27;20066;-73
2022/09/23 11:00:22;;;;;;;0.32;0.30;;;;;;;16.44;81.87;101261.38;21224442;27;20039;-73
2022/09/23 11:10:51;;;;;;;0.85;0.50;;;;;;;16.45;81.88;101271.16;21225059;27;20058;-74
2022/09/23 11:21:24;;;;;;;0.50;0.50;;;;;;;16.45;81.96;101257.72;21224717;27;20130;-74
2022/09/23 11:31:46;;;;;;;0.30;0.30;;;;;;;16.44;81.94;101245.25;21223413;27;20099;-74
2022/09/23 11:41:51;;;;;;;0.40;0.40;;;;;;;16.44;81.90;101247.94;21210820;27;20043;-73
2022/09/23 11:52:13;;;;;;;0.40;0.40;;;;;;;16.44;82.03;101237.19;21159080;27;20043;-73
2022/09/23 12:02:20;;;;;;;0.55;0.40;;;;;;;16.44;82.08;101229.13;21219621;27;20049;-74
2022/09/23 12:13:07;;;;;;;0.40;0.40;;;;;;;16.37;82.17;101213.47;21220712;27;20055;-73
2022/09/23 12:23:27;;;;;;;0.47;0.47;;;;;;;16.44;82.04;101221.06;21185736;27;20440;-73
2022/09/23 12:33:32;;;;;;;0.40;0.40;;;;;;;16.44;82.09;101216.53;21218372;27;20047;-74
2022/09/23 12:43:34;;;;;;;0.50;0.50;;;;;;;16.44;82.10;101203.09;21124765;27;20518;-74
2022/09/23 12:53:54;;;;;;;0.63;0.50;;;;;;;16.45;82.00;101206.66;21217788;27;20095;-73
2022/09/23 13:14:20;;;;;;;0.50;0.50;;;;;;;16.43;82.19;101187.94;21214406;27;20071;-74
2022/09/23 13:24:40;;;;;;;0.40;0.40;;;;;;;16.44;82.20;101180.75;20909842;27;20136;-73
2022/09/23 13:34:46;;;;;;;0.40;0.40;;;;;;;16.45;82.19;101175.25;20864597;27;20059;-73
2022/09/23 13:44:48;;;;;;;0.60;0.50;;;;;;;16.45;82.15;101171.72;21049222;27;20043;-73
2022/09/23 13:54:50;;;;;;;0.45;0.40;;;;;;;16.33;82.18;101157.41;21194269;27;20054;-73
2022/09/23 14:04:55;;;;;;;0.50;0.50;;;;;;;16.45;82.32;101144.84;21212971;27;20061;-74
2022/09/23 14:14:56;;;;;;;0.80;0.50;;;;;;;16.29;82.05;101113.78;21223346;27;20051;-73
2022/09/23 14:24:58;;;;;;;0.50;0.50;;;;;;;16.44;82.20;101135.91;21228703;27;20057;-74
2022/09/23 14:34:59;;;;;;;0.40;0.40;;;;;;;16.45;82.31;101129.56;21228514;27;20066;-74
2022/09/23 14:45:02;;;;;;;0.60;0.60;;;;;;;16.19;82.24;101077.88;21161250;27;20043;-74
2022/09/23 14:55:13;;;;;;;0.32;0.32;;;;;;;16.29;82.21;101099.50;21224915;27;20411;-73
2022/09/23 15:05:20;;;;;;;0.88;0.70;;;;;;;16.46;82.65;101125.06;21223989;27;20047;-74
2022/09/23 15:15:26;;;;;;;1.45;0.80;;;;;;;16.48;82.83;101120.41;21223940;27;20155;-74
2022/09/23 15:25:34;;;;;;;1.52;0.70;;;;;;;16.47;82.80;101111.47;21035596;27;20058;-73
2022/09/23 15:35:36;;;;;;;1.23;0.93;;;;;;;16.35;82.74;101089.16;20934946;27;20056;-73
2022/09/23 15:45:42;;;;;;;2.00;0.90;;;;;;;16.41;82.97;101097.69;21146431;27;20100;-73
2022/09/23 15:55:44;;;;;;;0.75;0.60;;;;;;;16.46;83.00;101099.03;21222576;27;20062;-74
2022/09/23 16:05:47;;;;;;;1.30;0.88;;;;;;;16.44;82.84;101087.53;21220493;27;20047;-73
2022/09/23 16:15:49;;;;;;;0.93;0.68;;;;;;;16.46;82.83;101098.19;21220645;27;20058;-74
2022/09/23 16:25:51;;;;;;;1.10;0.80;;;;;;;16.46;83.05;101087.44;21219898;27;20095;-73
2022/09/23 16:35:53;;;;;;;1.52;0.65;;;;;;;16.44;82.91;101076.78;21177569;27;20050;-73
2022/09/23 16:45:54;;;;;;;1.42;0.70;;;;;;;16.38;83.12;101063.84;20886547;27;20520;-74
2022/09/23 16:55:59;;;;;;;1.73;0.50;;;;;;;16.45;83.10;101069.59;20898937;27;20106;-74
2022/09/23 17:06:02;;;;;;;1.13;0.65;;;;;;;16.44;83.08;101068.72;20806850;27;20514;-74
2022/09/23 17:16:10;;;;;;;1.17;0.90;;;;;;;16.44;83.22;101067.88;20765169;27;20178;-74
2022/09/23 17:26:12;;;;;;;0.82;0.73;;;;;;;16.44;83.30;101068.72;20756416;27;20077;-74
2022/09/23 17:36:14;;;;;;;2.13;1.25;;;;;;;16.45;83.96;101069.59;20720197;27;20146;-73
2022/09/23 17:46:17;;;;;;;2.90;1.35;;;;;;;15.94;84.17;100985.84;20777337;27;20058;-73
2022/09/23 17:56:24;;;;;;;3.03;1.23;;;;;;;16.49;84.40;101076.44;20719844;27;20054;-74
2022/09/23 18:06:30;;;;;;;2.50;1.25;;;;;;;16.47;84.60;101067.66;20704548;27;20060;-73
2022/09/23 18:16:38;;;;;;;6.57;1.85;;;;;;;16.45;84.45;101064.22;20713960;27;20049;-74
2022/09/23 18:26:41;;;;;;;5.70;1.35;;;;;;;16.44;84.66;101057.97;20748918;27;20054;-73
2022/09/23 18:36:43;;;;;;;2.22;1.40;;;;;;;16.47;84.85;101063.09;20763176;27;20639;-74
2022/09/23 18:46:44;;;;;;;1.48;1.00;;;;;;;16.47;84.79;101065.78;20748364;27;20130;-74
2022/09/23 18:56:46;;;;;;;2.63;0.90;;;;;;;16.47;84.78;101067.66;20739096;27;20124;-74
2022/09/23 19:06:48;;;;;;;2.47;1.10;;;;;;;16.47;84.91;101068.47;20784508;27;20050;-74
2022/09/23 19:16:50;;;;;;;1.65;0.93;;;;;;;16.47;84.84;101070.34;20826869;27;20098;-74
2022/09/23 19:26:52;;;;;;;3.20;1.20;;;;;;;16.02;84.89;100998.63;20762209;27;20049;-74
2022/09/23 19:36:58;;;;;;;3.67;1.20;;;;;;;16.48;85.36;101056.75;20722569;27;20053;-74
2022/09/23 19:47:00;;;;;;;2.70;1.15;;;;;;;16.48;85.58;101048.69;20753723;27;20048;-74
2022/09/23 19:57:01;;;;;;;2.83;1.10;;;;;;;16.49;85.74;101053.09;20747253;27;20056;-74
2022/09/23 20:07:04;;;;;;;1.67;0.98;;;;;;;16.48;85.66;101037.94;20714035;27;20048;-74
2022/09/23 20:17:06;;;;;;;1.95;1.30;;;;;;;16.48;85.62;101037.09;20904427;27;20078;-74
2022/09/23 20:27:08;;;;;;;2.10;0.80;;;;;;;16.49;85.71;101028.06;20868919;27;20048;-74
2022/09/23 20:37:10;;;;;;;1.80;1.23;;;;;;;16.30;85.68;100983.84;21087183;27;20050;-73
2022/09/23 20:47:13;;;;;;;1.20;0.93;;;;;;;16.49;85.78;101022.69;21214928;27;20055;-74
2022/09/23 20:57:15;;;;;;;2.15;1.17;;;;;;;16.30;85.58;100978.47;21214203;27;20058;-74
2022/09/23 21:07:16;;;;;;;2.40;1.00;;;;;;;16.50;85.74;101002.91;21213859;27;20046;-74
2022/09/23 21:17:18;;;;;;;1.52;1.00;;;;;;;16.44;85.76;100995.34;21213189;27;20053;-74
2022/09/23 21:27:19;;;;;;;1.40;0.88;;;;;;;16.49;85.54;100996.66;21198938;27;20054;-74
2022/09/23 21:37:21;;;;;;;1.50;0.80;;;;;;;16.49;85.68;100996.66;21151870;27;20039;-75
2022/09/23 21:47:22;;;;;;;1.98;1.00;;;;;;;16.50;85.67;100993.00;21211572;27;20499;-74
2022/09/23 21:57:24;;;;;;;1.48;0.98;;;;;;;16.50;85.68;100998.34;21210376;27;20065;-77
2022/09/23 22:07:26;;;;;;;2.47;1.10;;;;;;;16.45;85.68;100980.91;21210553;27;20137;-74
2022/09/23 22:17:29;;;;;;;1.52;0.98;;;;;;;16.51;85.92;100983.94;21211658;27;20145;-74
2022/09/23 22:27:31;;;;;;;2.65;1.00;;;;;;;16.45;85.90;100962.94;21162036;27;20039;-74
2022/09/23 22:37:33;;;;;;;1.65;1.00;;;;;;;16.46;85.78;100955.75;21192657;27;20111;-74
2022/09/23 22:47:36;;;;;;;1.25;1.10;;;;;;;16.51;85.88;100972.34;21205485;27;20051;-74
2022/09/23 22:57:38;;;;;;;1.48;0.98;;;;;;;16.52;85.83;100963.31;21226074;27;20043;-74
2022/09/23 23:07:40;;;;;;;1.08;0.90;;;;;;;16.34;85.85;100920.81;21223571;27;20051;-74
2022/09/23 23:17:42;;;;;;;1.20;0.90;;;;;;;16.52;85.85;100949.88;21221814;27;20057;-74
2022/09/23 23:27:44;;;;;;;1.08;1.00;;;;;;;16.53;85.91;100948.91;21174539;27;20530;-73
2022/09/23 23:37:46;;;;;;;1.30;0.90;;;;;;;16.53;86.05;100938.16;21222560;27;20086;-74
2022/09/23 23:47:47;;;;;;;1.30;0.90;;;;;;;16.40;85.89;100918.66;21219683;27;20051;-74
2022/09/23 23:57:50;;;;;;;1.58;0.88;;;;;;;16.54;85.93;100947.91;21202348;27;20396;-74
